createdAt,value
2022-08-24T00:00:05.073Z,95725.81
2022-08-24T00:03:06.909Z,95726.22
2022-08-24T00:06:09.972Z,95726.91
2022-08-24T00:09:13.005Z,95714.78
2022-08-24T00:12:14.795Z,95708.63
2022-08-24T00:15:16.937Z,95707.25
2022-08-24T00:18:18.949Z,95704.19
2022-08-24T00:21:20.628Z,95705.03
2022-08-24T00:24:23.689Z,95697.16
2022-08-24T00:27:25.354Z,95698.03
2022-08-24T00:30:27.439Z,95694.88
2022-08-24T00:33:29.210Z,95696.06
2022-08-24T00:36:32.276Z,95692.53
2022-08-24T00:39:35.312Z,95688.19
2022-08-24T00:42:37.173Z,95688.09
2022-08-24T00:45:42.587Z,95690.94
2022-08-24T00:48:47.210Z,95690.94
2022-08-24T00:51:52.868Z,95693.06
2022-08-24T00:54:58.856Z,95686.56
2022-08-24T00:58:02.096Z,95699.38
2022-08-24T01:01:05.199Z,95694.78
2022-08-24T01:04:08.574Z,95698.75
2022-08-24T01:07:10.299Z,95696.72
2022-08-24T01:10:14.413Z,95698.16
2022-08-24T01:13:16.549Z,95696.09
2022-08-24T01:16:19.229Z,95694.81
2022-08-24T01:19:27.041Z,95693.72
2022-08-24T01:22:45.817Z,95693.34
2022-08-24T01:25:48.907Z,95684.84
2022-08-24T01:28:52.127Z,95691.88
2022-08-24T01:31:54.142Z,95694.69
2022-08-24T01:34:56.731Z,95690.28
2022-08-24T01:38:01.179Z,95690.13
2022-08-24T01:41:04.620Z,95699.72
2022-08-24T01:44:06.444Z,95704.13
2022-08-24T01:47:09.812Z,95701.69
2022-08-24T01:50:11.564Z,95708.97
2022-08-24T01:53:13.258Z,95708.78
2022-08-24T01:56:16.383Z,95707.16
2022-08-24T01:59:18.334Z,95702.81
2022-08-24T02:02:23.457Z,95705.66
2022-08-24T02:05:25.206Z,95705.28
2022-08-24T02:08:26.879Z,95711.69
2022-08-24T02:11:30.058Z,95703.47
2022-08-24T02:14:31.856Z,95709.28
2022-08-24T02:17:36.110Z,95713.25
2022-08-24T02:20:37.799Z,95717.16
2022-08-24T02:23:40.534Z,95716.75
2022-08-24T02:26:43.831Z,95716.50
2022-08-24T02:29:45.583Z,95711.94
2022-08-24T02:32:47.243Z,95712.84
2022-08-24T02:35:48.964Z,95708.69
2022-08-24T02:38:50.615Z,95715.75
2022-08-24T02:41:53.703Z,95715.31
2022-08-24T02:44:55.310Z,95711.41
2022-08-24T02:47:56.980Z,95719.47
2022-08-24T02:50:58.655Z,95715.91
2022-08-24T02:54:01.086Z,95716.06
2022-08-24T02:57:04.363Z,95713.00
2022-08-24T03:00:10.190Z,95725.09
2022-08-24T03:03:12.435Z,95728.16
2022-08-24T03:06:14.155Z,95718.41
2022-08-24T03:09:15.851Z,95724.47
2022-08-24T03:12:18.901Z,95722.16
2022-08-24T03:15:21.307Z,95727.47
2022-08-24T03:18:24.786Z,95722.59
2022-08-24T03:21:27.201Z,95720.25
2022-08-24T03:24:28.929Z,95719.88
2022-08-24T03:27:31.980Z,95727.38
2022-08-24T03:30:33.700Z,95725.88
2022-08-24T03:33:35.368Z,95713.31
2022-08-24T03:36:37.048Z,95714.84
2022-08-24T03:39:38.822Z,95718.81
2022-08-24T03:42:41.969Z,95723.63
2022-08-24T03:45:43.698Z,95723.81
2022-08-24T03:48:45.409Z,95717.81
2022-08-24T03:51:47.140Z,95719.06
2022-08-24T03:54:49.055Z,95719.84
2022-08-24T03:57:52.095Z,95720.72
2022-08-24T04:00:53.813Z,95720.19
2022-08-24T04:03:55.546Z,95720.00
2022-08-24T04:06:57.359Z,95719.91
2022-08-24T04:09:59.009Z,95726.47
2022-08-24T04:13:02.483Z,95720.53
2022-08-24T04:16:04.696Z,95718.81
2022-08-24T04:19:06.356Z,95715.22
2022-08-24T04:22:08.017Z,95717.66
2022-08-24T04:25:10.485Z,95715.63
2022-08-24T04:28:14.412Z,95719.13
2022-08-24T04:31:16.115Z,95742.00
2022-08-24T04:34:18.094Z,95736.53
2022-08-24T04:37:27.048Z,95738.81
2022-08-24T04:40:31.088Z,95739.63
2022-08-24T04:43:35.868Z,95739.63
2022-08-24T04:46:37.967Z,95748.56
2022-08-24T04:49:39.773Z,95757.00
2022-08-24T04:52:42.541Z,95754.03
2022-08-24T04:55:45.329Z,95755.34
2022-08-24T04:58:48.310Z,95762.75
2022-08-24T05:01:49.969Z,95768.91
2022-08-24T05:04:51.680Z,95772.31
2022-08-24T05:07:56.460Z,95779.25
2022-08-24T05:10:58.389Z,95774.91
2022-08-24T05:14:01.664Z,95781.66
2022-08-24T05:17:03.734Z,95786.19
2022-08-24T05:20:05.673Z,95788.53
2022-08-24T05:23:07.725Z,95783.38
2022-08-24T05:26:10.969Z,95788.09
2022-08-24T05:29:14.061Z,95793.47
2022-08-24T05:32:16.674Z,95788.69
2022-08-24T05:35:18.338Z,95782.00
2022-08-24T05:38:20.028Z,95782.72
2022-08-24T05:41:21.948Z,95787.34
2022-08-24T05:44:29.133Z,95782.22
2022-08-24T05:47:32.783Z,95785.38
2022-08-24T05:50:36.709Z,95791.44
2022-08-24T05:53:38.487Z,95787.59
2022-08-24T05:56:40.405Z,95789.47
2022-08-24T05:59:43.461Z,95785.84
2022-08-24T06:02:45.234Z,95790.19
2022-08-24T06:05:46.901Z,95784.28
2022-08-24T06:08:50.276Z,95781.63
2022-08-24T06:11:51.871Z,95780.72
2022-08-24T06:14:54.877Z,95785.06
2022-08-24T06:17:56.597Z,95785.72
2022-08-24T06:20:58.295Z,95778.31
2022-08-24T06:24:00.658Z,95784.81
2022-08-24T06:27:02.414Z,95783.63
2022-08-24T06:30:07.214Z,95780.06
2022-08-24T06:33:09.252Z,95777.25
2022-08-24T06:36:10.896Z,95774.19
2022-08-24T06:39:12.767Z,95771.38
2022-08-24T06:42:14.649Z,95770.69
2022-08-24T06:45:18.435Z,95772.22
2022-08-24T06:48:20.072Z,95771.81
2022-08-24T06:51:22.329Z,95768.56
2022-08-24T06:54:23.972Z,95772.78
2022-08-24T06:57:25.620Z,95770.19
2022-08-24T07:00:28.804Z,95771.66
2022-08-24T07:03:30.612Z,95773.03
2022-08-24T07:06:32.326Z,95771.44
2022-08-24T07:09:34.260Z,95777.97
2022-08-24T07:12:36.042Z,95768.28
2022-08-24T07:15:39.104Z,95771.16
2022-08-24T07:18:40.941Z,95771.06
2022-08-24T07:21:43.225Z,95762.03
2022-08-24T07:24:44.887Z,95770.50
2022-08-24T07:27:46.556Z,95773.50
2022-08-24T07:30:49.654Z,95777.69
2022-08-24T07:33:52.339Z,95772.78
2022-08-24T07:36:53.969Z,95770.97
2022-08-24T07:39:55.748Z,95769.34
2022-08-24T07:42:58.122Z,95764.22
2022-08-24T07:46:01.174Z,95768.38
2022-08-24T07:49:11.016Z,95776.56
2022-08-24T07:52:14.464Z,95768.88
2022-08-24T07:55:16.180Z,95769.41
2022-08-24T07:58:17.840Z,95763.06
2022-08-24T08:01:20.864Z,95770.75
2022-08-24T08:04:25.390Z,95768.44
2022-08-24T08:07:27.071Z,95768.06
2022-08-24T08:10:28.883Z,95769.09
2022-08-24T08:13:30.946Z,95772.84
2022-08-24T08:16:34.031Z,95782.31
2022-08-24T08:19:35.693Z,95778.44
2022-08-24T08:22:37.365Z,95790.44
2022-08-24T08:25:40.350Z,95786.72
2022-08-24T08:28:43.093Z,95781.69
2022-08-24T08:31:46.731Z,95781.94
2022-08-24T08:34:48.417Z,95781.53
2022-08-24T08:37:50.164Z,95785.94
2022-08-24T08:40:59.822Z,95782.97
2022-08-24T08:44:03.253Z,95785.06
2022-08-24T08:47:13.870Z,95795.38
2022-08-24T08:50:18.231Z,95793.41
2022-08-24T08:53:40.902Z,95791.66
2022-08-24T08:56:49.103Z,95796.16
2022-08-24T09:00:02.721Z,95795.50
2022-08-24T09:03:19.207Z,95788.84
2022-08-24T09:06:50.562Z,95790.72
2022-08-24T09:10:09.312Z,95799.16
2022-08-24T09:13:24.193Z,95803.88
2022-08-24T09:16:31.665Z,95804.25
2022-08-24T09:19:42.753Z,95793.94
2022-08-24T09:22:46.555Z,95795.09
2022-08-24T09:25:51.690Z,95792.47
2022-08-24T09:29:00.164Z,95803.69
2022-08-24T09:32:07.522Z,95790.28
2022-08-24T09:35:12.569Z,95797.09
2022-08-24T09:38:42.073Z,95795.91
2022-08-24T09:41:54.239Z,95794.44
2022-08-24T09:45:14.839Z,95800.41
2022-08-24T09:48:25.358Z,95783.03
2022-08-24T09:51:44.615Z,95779.91
2022-08-24T09:54:58.191Z,95778.31
2022-08-24T09:58:07.151Z,95772.47
2022-08-24T10:01:13.834Z,95771.56
2022-08-24T10:04:21.054Z,95778.59
2022-08-24T10:07:27.796Z,95778.34
2022-08-24T10:10:35.787Z,95770.72
2022-08-24T10:13:40.268Z,95778.09
2022-08-24T10:16:44.936Z,95770.63
2022-08-24T10:19:53.326Z,95772.22
2022-08-24T10:23:06.378Z,95772.38
2022-08-24T10:26:16.444Z,95767.44
2022-08-24T10:29:26.091Z,95771.09
2022-08-24T10:32:38.848Z,95757.75
2022-08-24T10:35:49.617Z,95760.69
2022-08-24T10:38:57.689Z,95768.44
2022-08-24T10:42:15.411Z,95762.34
2022-08-24T10:45:20.684Z,95765.13
2022-08-24T10:48:38.001Z,95756.06
2022-08-24T10:51:43.545Z,95751.72
2022-08-24T10:54:45.503Z,95761.84
2022-08-24T10:57:54.269Z,95754.94
2022-08-24T11:00:56.255Z,95755.56
2022-08-24T11:04:00.095Z,95763.06
2022-08-24T11:07:06.715Z,95751.75
2022-08-24T11:10:09.284Z,95758.34
2022-08-24T11:13:20.364Z,95749.69
2022-08-24T11:16:26.152Z,95760.25
2022-08-24T11:19:31.991Z,95758.78
2022-08-24T11:22:35.677Z,95765.81
2022-08-24T11:25:38.382Z,95768.72
2022-08-24T11:28:46.672Z,95758.03
2022-08-24T11:31:49.329Z,95764.59
2022-08-24T11:34:51.194Z,95767.44
2022-08-24T11:37:55.144Z,95769.75
2022-08-24T11:41:03.248Z,95763.53
2022-08-24T11:44:17.390Z,95759.69
2022-08-24T11:47:32.106Z,95754.66
2022-08-24T11:50:36.029Z,95749.22
2022-08-24T11:53:43.587Z,95749.34
2022-08-24T11:56:49.912Z,95759.50
2022-08-24T11:59:55.249Z,95760.84
2022-08-24T12:03:04.905Z,95752.06
2022-08-24T12:06:10.179Z,95752.25
2022-08-24T12:09:21.158Z,95755.13
2022-08-24T12:12:27.644Z,95749.16
2022-08-24T12:15:36.994Z,95742.28
2022-08-24T12:18:45.822Z,95751.91
2022-08-24T12:21:49.470Z,95747.69
2022-08-24T12:24:54.110Z,95755.91
2022-08-24T12:27:57.272Z,95746.22
2022-08-24T12:31:03.493Z,95738.97
2022-08-24T12:34:09.823Z,95743.16
2022-08-24T12:37:16.108Z,95743.47
2022-08-24T12:40:23.285Z,95741.69
2022-08-24T12:43:27.008Z,95742.34
2022-08-24T12:46:30.502Z,95736.47
2022-08-24T12:49:34.931Z,95730.66
2022-08-24T12:53:00.641Z,95738.00
2022-08-24T12:56:09.555Z,95740.06
2022-08-24T12:59:18.234Z,95735.06
2022-08-24T13:02:48.419Z,95744.72
2022-08-24T13:05:53.256Z,95735.91
2022-08-24T13:09:05.557Z,95732.91
2022-08-24T13:12:27.811Z,95726.09
2022-08-24T13:15:52.296Z,95736.66
2022-08-24T13:19:18.079Z,95722.94
2022-08-24T13:22:38.490Z,95731.72
2022-08-24T13:25:52.656Z,95734.78
2022-08-24T13:28:56.591Z,95731.34
2022-08-24T13:31:59.057Z,95737.84
2022-08-24T13:35:20.967Z,95742.38
2022-08-24T13:38:43.409Z,95738.72
2022-08-24T13:41:53.351Z,95730.63
2022-08-24T13:45:13.045Z,95731.75
2022-08-24T13:48:20.671Z,95724.16
2022-08-24T13:51:29.808Z,95722.63
2022-08-24T13:54:32.968Z,95720.25
2022-08-24T13:57:40.123Z,95724.06
2022-08-24T14:00:44.499Z,95724.03
2022-08-24T14:04:04.583Z,95719.13
2022-08-24T14:07:11.527Z,95721.78
2022-08-24T14:10:23.019Z,95723.63
2022-08-24T14:13:43.326Z,95723.63
2022-08-24T14:16:50.312Z,95722.66
2022-08-24T14:19:57.449Z,95716.38
2022-08-24T14:23:03.033Z,95711.97
2022-08-24T14:26:23.126Z,95708.56
2022-08-24T14:29:31.270Z,95706.00
2022-08-24T14:32:37.730Z,95708.25
2022-08-24T14:35:42.787Z,95709.28
2022-08-24T14:39:05.395Z,95708.66
2022-08-24T14:42:14.683Z,95699.84
2022-08-24T14:45:22.226Z,95700.44
2022-08-24T14:48:31.720Z,95695.47
2022-08-24T14:51:44.159Z,95690.88
2022-08-24T14:54:53.031Z,95690.47
2022-08-24T14:58:04.591Z,95693.94
2022-08-24T15:01:26.025Z,95697.19
2022-08-24T15:04:38.164Z,95696.81
2022-08-24T15:07:40.290Z,95706.06
2022-08-24T15:10:44.393Z,95698.91
2022-08-24T15:13:47.751Z,95693.00
2022-08-24T15:17:00.021Z,95691.41
2022-08-24T15:20:06.915Z,95688.44
2022-08-24T15:23:13.413Z,95682.69
2022-08-24T15:26:18.719Z,95683.44
2022-08-24T15:29:22.357Z,95677.38
2022-08-24T15:32:28.301Z,95689.03
2022-08-24T15:35:32.213Z,95684.78
2022-08-24T15:38:34.705Z,95695.66
2022-08-24T15:41:38.400Z,95694.34
2022-08-24T15:44:41.399Z,95696.97
2022-08-24T15:47:51.187Z,95686.97
2022-08-24T15:50:54.853Z,95682.56
2022-08-24T15:53:56.540Z,95687.94
2022-08-24T15:56:59.213Z,95692.59
2022-08-24T16:00:07.076Z,95689.50
2022-08-24T16:03:24.426Z,95680.47
2022-08-24T16:06:34.579Z,95685.16
2022-08-24T16:09:36.903Z,95683.38
2022-08-24T16:12:38.868Z,95687.09
2022-08-24T16:15:45.523Z,95685.84
2022-08-24T16:18:51.138Z,95688.16
2022-08-24T16:21:54.689Z,95678.97
2022-08-24T16:25:26.585Z,95675.41
2022-08-24T16:28:36.257Z,95683.19
2022-08-24T16:31:49.221Z,95678.50
2022-08-24T16:34:53.447Z,95677.72
2022-08-24T16:37:55.113Z,95680.06
2022-08-24T16:40:57.800Z,95682.19
2022-08-24T16:43:59.799Z,95678.00
2022-08-24T16:47:01.656Z,95680.84
2022-08-24T16:50:06.003Z,95684.91
2022-08-24T16:53:07.678Z,95689.97
2022-08-24T16:56:11.635Z,95681.69
2022-08-24T16:59:25.134Z,95684.31
2022-08-24T17:02:26.945Z,95687.72
2022-08-24T17:05:30.062Z,95679.28
2022-08-24T17:08:31.987Z,95689.97
2022-08-24T17:11:33.740Z,95690.13
2022-08-24T17:14:35.683Z,95690.16
2022-08-24T17:17:37.430Z,95697.31
2022-08-24T17:20:40.923Z,95697.03
2022-08-24T17:23:42.798Z,95696.22
2022-08-24T17:26:48.353Z,95687.47
2022-08-24T17:29:50.575Z,95694.50
2022-08-24T17:32:53.250Z,95698.94
2022-08-24T17:35:56.372Z,95699.84
2022-08-24T17:38:58.736Z,95700.25
2022-08-24T17:42:00.442Z,95695.69
2022-08-24T17:45:02.119Z,95708.44
2022-08-24T17:48:04.105Z,95699.66
2022-08-24T17:51:07.277Z,95717.44
2022-08-24T17:54:08.937Z,95705.03
2022-08-24T17:57:11.829Z,95708.75
2022-08-24T18:00:13.865Z,95707.41
2022-08-24T18:03:16.735Z,95717.22
2022-08-24T18:06:20.894Z,95727.31
2022-08-24T18:09:27.707Z,95725.31
2022-08-24T18:12:29.450Z,95730.75
2022-08-24T18:15:35.555Z,95727.66
2022-08-24T18:18:37.800Z,95734.25
2022-08-24T18:21:40.836Z,95734.72
2022-08-24T18:24:42.833Z,95736.41
2022-08-24T18:27:45.553Z,95746.38
2022-08-24T18:30:48.284Z,95739.56
2022-08-24T18:33:49.959Z,95739.16
2022-08-24T18:36:53.199Z,95737.09
2022-08-24T18:39:55.002Z,95740.09
2022-08-24T18:42:57.477Z,95746.19
2022-08-24T18:46:01.610Z,95741.88
2022-08-24T18:49:04.404Z,95743.47
2022-08-24T18:52:08.893Z,95740.41
2022-08-24T18:55:10.703Z,95742.22
2022-08-24T18:58:12.546Z,95733.50
2022-08-24T19:01:14.710Z,95741.78
2022-08-24T19:04:16.566Z,95739.13
2022-08-24T19:07:20.536Z,95738.16
2022-08-24T19:10:23.705Z,95744.06
2022-08-24T19:13:25.763Z,95731.41
2022-08-24T19:16:27.738Z,95733.78
2022-08-24T19:19:29.744Z,95731.72
2022-08-24T19:22:32.996Z,95739.00
2022-08-24T19:25:35.609Z,95735.97
2022-08-24T19:28:37.461Z,95734.78
2022-08-24T19:31:39.859Z,95735.88
2022-08-24T19:34:41.663Z,95739.44
2022-08-24T19:37:46.187Z,95745.41
2022-08-24T19:40:48.786Z,95738.78
2022-08-24T19:43:51.903Z,95732.22
2022-08-24T19:46:53.856Z,95734.34
2022-08-24T19:49:55.780Z,95744.97
2022-08-24T19:52:59.248Z,95742.84
2022-08-24T19:56:01.194Z,95741.91
2022-08-24T19:59:06.674Z,95750.66
2022-08-24T20:02:08.367Z,95746.31
2022-08-24T20:05:10.261Z,95750.94
2022-08-24T20:08:13.383Z,95748.75
2022-08-24T20:11:15.642Z,95750.78
2022-08-24T20:14:17.295Z,95747.13
2022-08-24T20:17:19.043Z,95755.03
2022-08-24T20:20:26.879Z,95748.88
2022-08-24T20:23:30.177Z,95754.25
2022-08-24T20:26:36.051Z,95753.63
2022-08-24T20:29:37.761Z,95756.38
2022-08-24T20:32:39.409Z,95759.97
2022-08-24T20:35:41.451Z,95761.28
2022-08-24T20:38:44.462Z,95751.94
2022-08-24T20:41:46.163Z,95749.09
2022-08-24T20:44:48.156Z,95753.06
2022-08-24T20:47:51.466Z,95746.47
2022-08-24T20:50:53.461Z,95755.69
2022-08-24T20:53:56.510Z,95748.09
2022-08-24T20:56:58.182Z,95756.78
2022-08-24T20:59:59.837Z,95754.03
2022-08-24T21:03:01.592Z,95753.25
2022-08-24T21:06:03.792Z,95758.44
2022-08-24T21:09:06.970Z,95752.81
2022-08-24T21:12:12.052Z,95745.53
2022-08-24T21:15:14.018Z,95741.25
2022-08-24T21:18:15.742Z,95744.50
2022-08-24T21:21:17.613Z,95743.03
2022-08-24T21:24:20.643Z,95743.63
2022-08-24T21:27:22.436Z,95745.63
2022-08-24T21:30:24.120Z,95743.50
2022-08-24T21:33:25.914Z,95743.94
2022-08-24T21:36:27.690Z,95747.47
2022-08-24T21:39:30.744Z,95738.25
2022-08-24T21:42:32.741Z,95741.53
2022-08-24T21:45:34.442Z,95741.97
2022-08-24T21:48:36.127Z,95743.50
2022-08-24T21:51:37.802Z,95739.63
2022-08-24T21:54:41.033Z,95731.19
2022-08-24T21:57:43.097Z,95729.47
2022-08-24T22:00:44.857Z,95729.75
2022-08-24T22:03:46.563Z,95722.84
2022-08-24T22:06:48.253Z,95716.44
2022-08-24T22:09:51.282Z,95719.31
2022-08-24T22:12:53.686Z,95725.72
2022-08-24T22:15:55.336Z,95716.16
2022-08-24T22:18:57.325Z,95708.91
2022-08-24T22:21:59.082Z,95715.84
2022-08-24T22:25:02.263Z,95709.25
2022-08-24T22:28:04.175Z,95696.31
2022-08-24T22:31:14.278Z,95697.06
2022-08-24T22:34:20.858Z,95700.34
2022-08-24T22:37:22.884Z,95696.56
2022-08-24T22:40:25.941Z,95688.41
2022-08-24T22:43:27.968Z,95686.78
2022-08-24T22:46:29.710Z,95704.47
2022-08-24T22:49:35.111Z,95692.06
2022-08-24T22:52:38.703Z,95684.84
2022-08-24T22:55:41.719Z,95689.44
2022-08-24T22:58:43.754Z,95686.47
2022-08-24T23:01:46.751Z,95685.72
2022-08-24T23:04:49.807Z,95683.63
2022-08-24T23:07:51.502Z,95678.81
2022-08-24T23:10:54.524Z,95686.25
2022-08-24T23:14:00.569Z,95678.47
2022-08-24T23:17:02.579Z,95676.06
2022-08-24T23:20:04.842Z,95674.97
2022-08-24T23:23:06.579Z,95673.84
2022-08-24T23:26:09.714Z,95670.56
2022-08-24T23:29:18.028Z,95668.50
2022-08-24T23:32:19.757Z,95661.78
2022-08-24T23:35:21.481Z,95664.66
2022-08-24T23:38:23.131Z,95654.56
2022-08-24T23:41:27.653Z,95655.88
2022-08-24T23:44:29.984Z,95653.03
2022-08-24T23:47:35.633Z,95649.75
2022-08-24T23:50:37.791Z,95646.75
2022-08-24T23:53:39.909Z,95653.38
2022-08-24T23:56:46.956Z,95642.91
2022-08-24T23:59:48.614Z,95638.63
